KEFD

Ellington Airport

Houston, Texas, USA
METAR KEFD 191450Z 21010KT 10SM BKN030 31/24 A2997
Observed Flight Rules
Aug-19 @ 14:50 UTC (2 hours ago) Marginal Visual Flight Rules
Wind Visibility Clouds
210° at 10 knots 10 miles
  • Broken at 3,000' AGL
Temperatures Readings
Current 31°C / 88°F
Dewpoint 24°C / 75°F
Humidity 66%
Altimeter 29.97" Hg
Pressure 1015 hPa
Elevation 10
METAR KEFD 191450Z 21010KT 10SM BKN030 31/24 A2997
Observed Flight Rules
Aug-19 @ 14:50 UTC
(2 hours ago)
MVFR
Wind Visibility
210° at 10 knots 10 miles
Clouds
  • Broken at 3,000' AGL
Temperature Dewpoint
31°C / 88°F 24°C / 75°F
Humidity Altimeter Pressure
66% 29.97" Hg 1015 hPa